createdAt,value
2022-07-29T00:00:09.862Z,20.50
2022-07-29T00:02:37.252Z,20.50
2022-07-29T00:05:05.385Z,20.50
2022-07-29T00:07:32.675Z,20.50
2022-07-29T00:09:59.655Z,20.50
2022-07-29T00:12:27.083Z,20.40
2022-07-29T00:14:56.055Z,20.40
2022-07-29T00:17:24.538Z,20.40
2022-07-29T00:19:51.658Z,20.30
2022-07-29T00:22:19.103Z,20.30
2022-07-29T00:24:46.032Z,20.30
2022-07-29T00:27:13.011Z,20.20
2022-07-29T00:29:39.856Z,20.20
2022-07-29T00:32:09.508Z,20.20
2022-07-29T00:34:54.780Z,20.20
2022-07-29T00:37:22.041Z,20.20
2022-07-29T00:39:49.028Z,20.10
2022-07-29T00:42:17.497Z,20.10
2022-07-29T00:44:44.809Z,20.10
2022-07-29T00:47:14.779Z,20.10
2022-07-29T00:49:43.049Z,20.10
2022-07-29T00:52:12.100Z,20.10
2022-07-29T00:54:44.426Z,20.00
2022-07-29T00:57:13.111Z,20.00
2022-07-29T00:59:40.550Z,20.00
2022-07-29T01:02:07.723Z,19.90
2022-07-29T01:04:34.978Z,19.90
2022-07-29T01:07:05.700Z,19.90
2022-07-29T01:09:45.523Z,19.90
2022-07-29T01:12:16.949Z,19.90
2022-07-29T01:14:44.286Z,19.80
2022-07-29T01:17:34.634Z,19.80
2022-07-29T01:20:32.157Z,19.70
2022-07-29T01:23:04.998Z,19.70
2022-07-29T01:26:02.729Z,19.70
2022-07-29T01:28:59.797Z,19.70
2022-07-29T01:32:00.971Z,19.70
2022-07-29T01:34:37.359Z,19.70
2022-07-29T01:37:36.352Z,19.70
2022-07-29T01:40:05.779Z,19.70
2022-07-29T01:42:41.707Z,19.70
2022-07-29T01:45:30.626Z,19.60
2022-07-29T01:48:03.456Z,19.70
2022-07-29T01:50:48.361Z,19.60
2022-07-29T01:53:23.010Z,19.60
2022-07-29T01:55:50.967Z,19.70
2022-07-29T01:58:20.124Z,19.70
2022-07-29T02:00:48.714Z,19.70
2022-07-29T02:03:18.577Z,19.70
2022-07-29T02:05:47.747Z,19.70
2022-07-29T02:08:16.499Z,19.60
2022-07-29T02:10:45.451Z,19.60
2022-07-29T02:13:14.182Z,19.60
2022-07-29T02:15:43.478Z,19.60
2022-07-29T02:18:23.678Z,19.60
2022-07-29T02:20:54.476Z,19.60
2022-07-29T02:23:24.520Z,19.50
2022-07-29T02:25:56.085Z,19.50
2022-07-29T02:28:25.681Z,19.50
2022-07-29T02:30:54.516Z,19.50
2022-07-29T02:33:23.398Z,19.50
2022-07-29T02:35:51.307Z,19.50
2022-07-29T02:38:38.244Z,19.50
2022-07-29T02:41:12.539Z,19.50
2022-07-29T02:43:41.751Z,19.50
2022-07-29T02:46:28.988Z,19.50
2022-07-29T02:49:04.072Z,19.50
2022-07-29T02:51:44.494Z,19.50
2022-07-29T02:54:19.811Z,19.40
2022-07-29T02:56:49.447Z,19.40
2022-07-29T02:59:23.242Z,19.40
2022-07-29T03:01:52.162Z,19.40
2022-07-29T03:04:21.447Z,19.40
2022-07-29T03:06:50.933Z,19.40
2022-07-29T03:09:18.616Z,19.30
2022-07-29T03:11:50.128Z,19.30
2022-07-29T03:14:20.834Z,19.30
2022-07-29T03:16:49.199Z,19.30
2022-07-29T03:19:17.296Z,19.30
2022-07-29T03:21:44.486Z,19.30
2022-07-29T03:24:24.830Z,19.30
2022-07-29T03:26:51.986Z,19.20
2022-07-29T03:29:18.928Z,19.20
2022-07-29T03:31:47.008Z,19.20
2022-07-29T03:34:15.893Z,19.20
2022-07-29T03:36:42.987Z,19.20
2022-07-29T03:39:12.956Z,19.20
2022-07-29T03:41:42.770Z,19.10
2022-07-29T03:44:11.060Z,19.10
2022-07-29T03:46:40.060Z,19.10
2022-07-29T03:49:09.608Z,19.10
2022-07-29T03:51:36.865Z,19.10
2022-07-29T03:54:09.505Z,19.00
2022-07-29T03:56:41.302Z,19.10
2022-07-29T03:59:08.628Z,19.10
2022-07-29T04:01:36.481Z,19.00
2022-07-29T04:04:04.985Z,19.00
2022-07-29T04:06:40.213Z,19.00
2022-07-29T04:09:07.371Z,19.00
2022-07-29T04:12:03.083Z,19.00
2022-07-29T04:14:26.056Z,19.00
2022-07-29T04:16:53.964Z,19.00
2022-07-29T04:19:21.003Z,19.00
2022-07-29T04:21:48.022Z,19.00
2022-07-29T04:24:15.398Z,19.00
2022-07-29T04:26:43.470Z,19.00
2022-07-29T04:29:10.735Z,19.00
2022-07-29T04:31:37.667Z,19.00
2022-07-29T04:34:04.950Z,19.00
2022-07-29T04:36:31.755Z,19.10
2022-07-29T04:39:00.220Z,19.10
2022-07-29T04:41:33.060Z,19.10
2022-07-29T04:44:06.927Z,19.10
2022-07-29T04:46:37.764Z,19.20
2022-07-29T04:49:08.061Z,19.20
2022-07-29T04:51:35.710Z,19.30
2022-07-29T04:54:02.913Z,19.30
2022-07-29T04:56:30.046Z,19.30
2022-07-29T04:58:57.265Z,19.30
2022-07-29T05:01:24.283Z,19.30
2022-07-29T05:03:51.415Z,19.30
2022-07-29T05:06:18.306Z,19.30
2022-07-29T05:08:45.251Z,19.40
2022-07-29T05:11:14.938Z,19.40
2022-07-29T05:13:45.763Z,19.40
2022-07-29T05:16:14.696Z,19.40
2022-07-29T05:18:43.232Z,19.40
2022-07-29T05:21:10.497Z,19.40
2022-07-29T05:23:37.621Z,19.40
2022-07-29T05:26:04.611Z,19.40
2022-07-29T05:28:35.975Z,19.40
2022-07-29T05:31:06.316Z,19.50
2022-07-29T05:33:34.884Z,19.60
2022-07-29T05:36:06.658Z,19.60
2022-07-29T05:38:34.734Z,19.70
2022-07-29T05:41:01.730Z,19.70
2022-07-29T05:43:30.575Z,19.70
2022-07-29T05:45:58.037Z,19.70
2022-07-29T05:48:25.337Z,19.70
2022-07-29T05:50:52.552Z,19.80
2022-07-29T05:53:20.849Z,19.80
2022-07-29T05:55:51.208Z,19.80
2022-07-29T05:58:18.201Z,19.80
2022-07-29T06:00:45.650Z,19.90
2022-07-29T06:03:13.426Z,19.90
2022-07-29T06:05:40.440Z,19.90
2022-07-29T06:08:08.353Z,20.00
2022-07-29T06:10:38.923Z,20.00
2022-07-29T06:13:06.787Z,20.10
2022-07-29T06:15:34.374Z,20.10
2022-07-29T06:18:02.290Z,20.00
2022-07-29T06:20:33.273Z,20.00
2022-07-29T06:23:00.975Z,20.00
2022-07-29T06:25:31.321Z,20.00
2022-07-29T06:27:58.955Z,20.10
2022-07-29T06:30:25.982Z,20.20
2022-07-29T06:32:52.979Z,20.40
2022-07-29T06:35:38.611Z,20.60
2022-07-29T06:38:34.064Z,20.80
2022-07-29T06:41:05.052Z,21.10
2022-07-29T06:43:50.364Z,21.40
2022-07-29T06:46:19.366Z,21.50
2022-07-29T06:48:46.793Z,21.60
2022-07-29T06:51:14.008Z,21.70
2022-07-29T06:54:00.330Z,21.90
2022-07-29T06:56:28.574Z,22.00
2022-07-29T06:58:55.703Z,22.00
2022-07-29T07:01:22.704Z,21.90
2022-07-29T07:03:49.790Z,21.70
2022-07-29T07:06:17.338Z,21.60
2022-07-29T07:08:46.930Z,21.50
2022-07-29T07:11:13.799Z,21.50
2022-07-29T07:13:40.649Z,21.50
2022-07-29T07:16:07.680Z,21.50
2022-07-29T07:18:34.589Z,21.60
2022-07-29T07:21:01.503Z,21.60
2022-07-29T07:23:28.624Z,21.90
2022-07-29T07:25:55.502Z,22.20
2022-07-29T07:28:24.918Z,22.30
2022-07-29T07:30:52.803Z,22.30
2022-07-29T07:33:20.538Z,22.40
2022-07-29T07:35:48.242Z,22.40
2022-07-29T07:38:15.126Z,22.50
2022-07-29T07:40:42.800Z,22.60
2022-07-29T07:43:11.232Z,22.80
2022-07-29T07:45:38.553Z,23.00
2022-07-29T07:48:06.153Z,23.00
2022-07-29T07:50:33.119Z,23.00
2022-07-29T07:53:00.525Z,23.00
2022-07-29T07:55:27.921Z,22.90
2022-07-29T07:57:58.009Z,22.90
2022-07-29T08:00:24.887Z,22.80
2022-07-29T08:02:51.998Z,22.80
2022-07-29T08:05:19.338Z,22.70
2022-07-29T08:07:47.580Z,22.70
2022-07-29T08:10:16.211Z,22.70
2022-07-29T08:12:44.769Z,22.80
2022-07-29T08:15:15.667Z,23.00
2022-07-29T08:17:42.619Z,23.30
2022-07-29T08:20:10.506Z,23.50
2022-07-29T08:22:37.633Z,23.80
2022-07-29T08:25:04.797Z,23.90
2022-07-29T08:27:43.376Z,24.00
2022-07-29T08:30:11.812Z,24.00
2022-07-29T08:32:55.738Z,24.20
2022-07-29T08:35:24.333Z,24.30
2022-07-29T08:37:52.043Z,24.40
2022-07-29T08:40:19.347Z,24.40
2022-07-29T08:42:46.393Z,24.60
2022-07-29T08:45:15.591Z,24.80
2022-07-29T08:47:44.796Z,25.10
2022-07-29T08:50:12.355Z,25.10
2022-07-29T08:52:41.391Z,25.00
2022-07-29T08:55:10.134Z,24.90
2022-07-29T08:57:40.029Z,24.90
2022-07-29T09:00:19.561Z,25.00
2022-07-29T09:02:52.733Z,25.00
2022-07-29T09:05:20.697Z,25.10
2022-07-29T09:07:49.069Z,25.40
2022-07-29T09:10:16.741Z,25.60
2022-07-29T09:12:43.773Z,25.80
2022-07-29T09:15:10.754Z,25.90
2022-07-29T09:17:57.756Z,25.90
2022-07-29T09:20:25.605Z,26.00
2022-07-29T09:22:54.615Z,26.00
2022-07-29T09:25:35.993Z,26.20
2022-07-29T09:28:11.246Z,26.30
2022-07-29T09:30:55.665Z,26.30
2022-07-29T09:33:24.320Z,26.40
2022-07-29T09:36:09.096Z,26.70
2022-07-29T09:38:38.101Z,26.80
2022-07-29T09:41:06.904Z,26.90
2022-07-29T09:43:37.006Z,27.10
2022-07-29T09:46:14.411Z,27.20
2022-07-29T09:48:41.492Z,27.50
2022-07-29T09:51:21.335Z,27.60
2022-07-29T09:53:49.183Z,27.80
2022-07-29T09:56:16.168Z,27.90
2022-07-29T09:58:43.029Z,28.00
2022-07-29T10:01:10.350Z,28.20
2022-07-29T10:03:54.169Z,28.30
2022-07-29T10:06:21.337Z,28.50
2022-07-29T10:08:48.351Z,28.50
2022-07-29T10:11:18.086Z,28.60
2022-07-29T10:13:46.773Z,28.70
2022-07-29T10:16:14.962Z,29.00
2022-07-29T10:18:43.416Z,29.20
2022-07-29T10:21:11.219Z,29.30
2022-07-29T10:23:50.447Z,29.50
2022-07-29T10:26:18.105Z,29.80
2022-07-29T10:28:45.535Z,30.00
2022-07-29T10:31:22.871Z,30.20
2022-07-29T10:34:20.252Z,30.20
2022-07-29T10:36:57.865Z,30.40
2022-07-29T10:42:34.531Z,30.50
2022-07-29T10:45:04.343Z,30.60
2022-07-29T10:47:35.440Z,30.70
2022-07-29T10:50:05.688Z,30.60
2022-07-29T10:52:51.057Z,30.60
2022-07-29T10:55:35.982Z,30.60
2022-07-29T10:58:30.383Z,30.60
2022-07-29T11:00:58.152Z,30.50
2022-07-29T11:03:52.112Z,30.30
2022-07-29T11:06:26.932Z,30.10
2022-07-29T11:09:35.017Z,29.90
2022-07-29T11:12:03.155Z,29.60
2022-07-29T11:14:58.729Z,29.50
2022-07-29T11:17:26.173Z,29.40
2022-07-29T11:20:32.582Z,29.10
2022-07-29T11:23:00.293Z,28.90
2022-07-29T11:25:50.221Z,28.90
2022-07-29T11:28:25.483Z,29.00
2022-07-29T11:30:56.308Z,29.20
2022-07-29T11:33:54.643Z,29.20
2022-07-29T11:36:28.206Z,29.20
2022-07-29T11:39:26.747Z,29.30
2022-07-29T11:42:32.553Z,29.50
2022-07-29T11:45:42.624Z,29.50
2022-07-29T11:48:05.360Z,29.40
2022-07-29T11:50:48.178Z,29.50
2022-07-29T11:53:16.220Z,29.50
2022-07-29T11:55:50.863Z,29.60
2022-07-29T11:58:29.131Z,29.70
2022-07-29T12:00:56.503Z,29.90
2022-07-29T12:03:33.365Z,30.00
2022-07-29T12:06:07.523Z,30.00
2022-07-29T12:08:43.516Z,30.00
2022-07-29T12:11:23.408Z,30.10
2022-07-29T12:13:52.616Z,30.10
2022-07-29T12:16:25.547Z,29.90
2022-07-29T12:18:57.821Z,29.70
2022-07-29T12:21:25.794Z,29.60
2022-07-29T12:24:03.360Z,29.70
2022-07-29T12:26:35.901Z,29.70
2022-07-29T12:29:03.745Z,29.80
2022-07-29T12:31:42.251Z,29.80
2022-07-29T12:34:16.845Z,29.80
2022-07-29T12:36:44.547Z,30.00
2022-07-29T12:39:12.439Z,30.00
2022-07-29T12:41:40.153Z,30.00
2022-07-29T12:44:06.996Z,29.90
2022-07-29T12:46:33.963Z,30.00
2022-07-29T12:49:01.172Z,30.00
2022-07-29T12:51:39.502Z,30.10
2022-07-29T12:54:14.517Z,30.20
2022-07-29T12:56:44.076Z,30.10
2022-07-29T12:59:23.188Z,30.10
2022-07-29T13:01:52.213Z,30.00
2022-07-29T13:04:37.704Z,30.00
2022-07-29T13:07:09.142Z,30.20
2022-07-29T13:09:46.470Z,30.30
2022-07-29T13:12:14.749Z,30.20
2022-07-29T13:14:44.511Z,30.20
2022-07-29T13:17:14.096Z,30.20
2022-07-29T13:19:45.281Z,30.10
2022-07-29T13:22:15.525Z,30.10
2022-07-29T13:24:57.165Z,30.00
2022-07-29T13:27:32.693Z,30.10
2022-07-29T13:30:01.810Z,30.10
2022-07-29T13:32:32.172Z,30.00
2022-07-29T13:35:01.602Z,29.90
2022-07-29T13:37:36.035Z,29.90
2022-07-29T13:40:05.252Z,29.90
2022-07-29T13:42:33.692Z,30.00
2022-07-29T13:45:01.338Z,30.00
2022-07-29T13:47:32.359Z,30.00
2022-07-29T13:50:00.906Z,30.00
2022-07-29T13:52:28.253Z,30.00
2022-07-29T13:54:55.196Z,30.00
2022-07-29T13:57:22.119Z,30.20
2022-07-29T13:59:53.581Z,30.20
2022-07-29T14:02:21.532Z,30.10
2022-07-29T14:04:56.546Z,30.10
2022-07-29T14:07:23.936Z,30.10
2022-07-29T14:09:51.355Z,30.00
2022-07-29T14:12:18.587Z,30.10
2022-07-29T14:14:47.204Z,30.00
2022-07-29T14:17:14.724Z,30.10
2022-07-29T14:19:41.988Z,30.10
2022-07-29T14:22:09.758Z,30.10
2022-07-29T14:24:40.124Z,30.00
2022-07-29T14:27:08.697Z,30.00
2022-07-29T14:29:38.267Z,30.00
2022-07-29T14:32:11.273Z,30.10
2022-07-29T14:34:39.165Z,30.10
2022-07-29T14:37:06.930Z,30.10
2022-07-29T14:39:42.593Z,30.20
2022-07-29T14:42:14.279Z,30.30
2022-07-29T14:44:42.373Z,30.40
2022-07-29T14:47:10.292Z,30.40
2022-07-29T14:49:37.368Z,30.20
2022-07-29T14:52:04.579Z,30.10
2022-07-29T14:54:31.497Z,30.20
2022-07-29T14:56:58.855Z,30.30
2022-07-29T14:59:27.221Z,30.40
2022-07-29T15:01:54.286Z,30.40
2022-07-29T15:04:21.590Z,30.30
2022-07-29T15:06:48.993Z,30.30
2022-07-29T15:09:16.029Z,30.30
2022-07-29T15:11:42.995Z,30.40
2022-07-29T15:14:10.528Z,30.50
2022-07-29T15:16:39.679Z,30.60
2022-07-29T15:19:11.034Z,30.80
2022-07-29T15:21:48.163Z,30.90
2022-07-29T15:24:17.436Z,30.70
2022-07-29T15:26:44.969Z,30.50
2022-07-29T15:29:11.948Z,30.50
2022-07-29T15:31:39.482Z,30.60
2022-07-29T15:34:07.640Z,30.70
2022-07-29T15:36:52.414Z,30.80
2022-07-29T15:39:21.427Z,31.00
2022-07-29T15:41:48.585Z,31.10
2022-07-29T15:44:15.582Z,31.00
2022-07-29T15:47:02.045Z,30.90
2022-07-29T15:49:47.317Z,30.90
2022-07-29T15:52:25.272Z,31.00
2022-07-29T15:54:57.609Z,30.90
2022-07-29T15:57:25.372Z,30.90
2022-07-29T15:59:52.411Z,30.80
2022-07-29T16:02:19.809Z,30.80
2022-07-29T16:04:47.466Z,30.80
2022-07-29T16:07:14.620Z,30.50
2022-07-29T16:09:42.567Z,30.30
2022-07-29T16:12:14.935Z,30.00
2022-07-29T16:14:43.976Z,29.90
2022-07-29T16:17:14.847Z,30.10
2022-07-29T16:19:45.908Z,30.50
2022-07-29T16:22:13.484Z,30.80
2022-07-29T16:24:43.087Z,30.90
2022-07-29T16:27:10.098Z,31.00
2022-07-29T16:29:37.500Z,31.00
2022-07-29T16:32:05.903Z,31.20
2022-07-29T16:34:33.055Z,31.40
2022-07-29T16:37:00.539Z,31.50
2022-07-29T16:39:27.728Z,31.50
2022-07-29T16:41:58.292Z,31.50
2022-07-29T16:44:27.510Z,31.50
2022-07-29T16:46:56.187Z,31.40
2022-07-29T16:49:26.662Z,31.50
2022-07-29T16:51:53.975Z,31.70
2022-07-29T16:54:20.909Z,31.90
2022-07-29T16:56:47.799Z,32.00
2022-07-29T16:59:14.738Z,32.00
2022-07-29T17:01:41.644Z,31.90
2022-07-29T17:04:08.848Z,32.00
2022-07-29T17:06:38.479Z,32.20
2022-07-29T17:09:06.747Z,32.40
2022-07-29T17:11:53.333Z,32.70
2022-07-29T17:14:29.543Z,32.90
2022-07-29T17:17:00.685Z,33.00
2022-07-29T17:19:35.408Z,33.10
2022-07-29T17:22:10.576Z,33.10
2022-07-29T17:24:41.714Z,33.20
2022-07-29T17:27:09.823Z,33.20
2022-07-29T17:29:37.074Z,33.20
2022-07-29T17:32:04.428Z,33.30
2022-07-29T17:34:36.035Z,33.20
2022-07-29T17:37:03.852Z,33.20
2022-07-29T17:39:31.102Z,33.20
2022-07-29T17:41:58.094Z,33.20
2022-07-29T17:44:25.121Z,33.20
2022-07-29T17:46:52.202Z,33.30
2022-07-29T17:49:19.267Z,33.20
2022-07-29T17:51:46.225Z,33.20
2022-07-29T17:54:13.591Z,33.20
2022-07-29T17:56:41.529Z,33.20
2022-07-29T17:59:10.242Z,33.00
2022-07-29T18:01:39.219Z,32.60
2022-07-29T18:04:06.229Z,32.00
2022-07-29T18:06:33.687Z,31.50
2022-07-29T18:09:01.215Z,30.90
2022-07-29T18:11:30.129Z,30.40
2022-07-29T18:13:57.088Z,29.90
2022-07-29T18:16:24.988Z,29.40
2022-07-29T18:18:51.932Z,29.00
2022-07-29T18:21:37.469Z,28.70
2022-07-29T18:24:06.633Z,28.40
2022-07-29T18:26:33.967Z,28.10
2022-07-29T18:29:00.904Z,27.90
2022-07-29T18:31:28.784Z,27.60
2022-07-29T18:33:59.870Z,27.40
2022-07-29T18:36:27.018Z,27.20
2022-07-29T18:38:54.760Z,27.00
2022-07-29T18:41:21.633Z,26.90
2022-07-29T18:43:50.550Z,26.70
2022-07-29T18:46:17.815Z,26.60
2022-07-29T18:48:45.375Z,26.50
2022-07-29T18:51:12.317Z,26.30
2022-07-29T18:53:39.348Z,26.20
2022-07-29T18:56:06.197Z,26.10
2022-07-29T18:58:33.464Z,25.90
2022-07-29T19:01:02.039Z,25.80
2022-07-29T19:03:28.909Z,25.70
2022-07-29T19:05:55.778Z,25.70
2022-07-29T19:08:22.889Z,25.60
2022-07-29T19:10:49.800Z,25.60
2022-07-29T19:13:16.727Z,25.50
2022-07-29T19:15:44.703Z,25.40
2022-07-29T19:18:13.342Z,25.30
2022-07-29T19:20:40.835Z,25.20
2022-07-29T19:23:09.148Z,25.20
2022-07-29T19:25:37.409Z,25.10
2022-07-29T19:28:20.493Z,25.10
2022-07-29T19:30:47.421Z,25.00
2022-07-29T19:33:17.424Z,24.90
2022-07-29T19:35:45.465Z,24.90
2022-07-29T19:38:13.063Z,24.80
2022-07-29T19:40:40.531Z,24.70
2022-07-29T19:43:51.368Z,24.60
2022-07-29T19:45:54.888Z,24.50
2022-07-29T19:48:22.085Z,24.40
2022-07-29T19:50:49.064Z,24.40
2022-07-29T19:53:15.970Z,24.30
2022-07-29T19:55:43.080Z,24.20
2022-07-29T19:58:10.033Z,24.10
2022-07-29T20:00:40.205Z,24.00
2022-07-29T20:03:07.528Z,24.00
2022-07-29T20:05:34.605Z,24.00
2022-07-29T20:08:04.840Z,23.90
2022-07-29T20:10:32.539Z,23.90
2022-07-29T20:12:59.416Z,23.80
2022-07-29T20:15:26.275Z,23.80
2022-07-29T20:17:57.171Z,23.70
2022-07-29T20:20:25.318Z,23.70
2022-07-29T20:22:53.135Z,23.60
2022-07-29T20:25:20.259Z,23.60
2022-07-29T20:27:49.653Z,23.50
2022-07-29T20:30:16.688Z,23.50
2022-07-29T20:32:46.020Z,23.50
2022-07-29T20:35:13.490Z,23.50
2022-07-29T20:37:52.489Z,23.50
2022-07-29T20:40:24.840Z,23.40
2022-07-29T20:42:52.043Z,23.30
2022-07-29T20:45:20.111Z,23.20
2022-07-29T20:47:47.421Z,23.20
2022-07-29T20:50:15.016Z,23.10
2022-07-29T20:52:44.071Z,23.00
2022-07-29T20:55:11.510Z,23.00
2022-07-29T20:57:39.875Z,22.90
2022-07-29T21:00:08.520Z,22.90
2022-07-29T21:02:36.009Z,22.90
2022-07-29T21:05:02.932Z,22.90
2022-07-29T21:07:29.854Z,22.90
2022-07-29T21:09:57.113Z,22.80
2022-07-29T21:12:24.088Z,22.90
2022-07-29T21:14:51.819Z,22.90
2022-07-29T21:17:21.271Z,22.90
2022-07-29T21:19:52.753Z,22.90
2022-07-29T21:22:22.177Z,23.00
2022-07-29T21:24:49.560Z,23.00
2022-07-29T21:27:38.264Z,22.90
2022-07-29T21:30:07.258Z,22.90
2022-07-29T21:32:34.411Z,22.90
2022-07-29T21:35:01.510Z,22.90
2022-07-29T21:37:28.450Z,22.90
2022-07-29T21:39:55.454Z,22.90
2022-07-29T21:42:22.472Z,22.90
2022-07-29T21:44:49.673Z,23.00
2022-07-29T21:47:16.641Z,23.00
2022-07-29T21:49:43.564Z,23.00
2022-07-29T21:52:12.374Z,23.10
2022-07-29T21:54:39.477Z,23.10
2022-07-29T21:57:07.053Z,23.10
2022-07-29T21:59:34.393Z,23.10
2022-07-29T22:02:01.353Z,23.10
2022-07-29T22:04:29.615Z,23.10
2022-07-29T22:06:57.992Z,23.10
2022-07-29T22:09:25.560Z,23.10
2022-07-29T22:11:52.587Z,23.00
2022-07-29T22:14:19.546Z,23.00
2022-07-29T22:16:47.125Z,23.00
2022-07-29T22:19:14.830Z,23.00
2022-07-29T22:21:42.249Z,22.90
2022-07-29T22:24:10.383Z,22.90
2022-07-29T22:26:38.287Z,22.90
2022-07-29T22:29:05.342Z,22.90
2022-07-29T22:31:32.505Z,22.90
2022-07-29T22:33:59.377Z,22.80
2022-07-29T22:36:27.049Z,22.80
2022-07-29T22:38:54.064Z,22.80
2022-07-29T22:41:21.202Z,22.80
2022-07-29T22:43:48.158Z,22.70
2022-07-29T22:46:15.259Z,22.70
2022-07-29T22:48:42.290Z,22.60
2022-07-29T22:51:09.230Z,22.60
2022-07-29T22:53:37.224Z,22.50
2022-07-29T22:56:04.605Z,22.40
2022-07-29T22:58:31.540Z,22.30
2022-07-29T23:00:59.967Z,22.20
2022-07-29T23:03:27.158Z,22.20
2022-07-29T23:05:54.004Z,22.00
2022-07-29T23:08:21.134Z,22.00
2022-07-29T23:10:48.149Z,21.80
2022-07-29T23:13:15.115Z,21.70
2022-07-29T23:15:42.118Z,21.70
2022-07-29T23:18:09.251Z,21.60
2022-07-29T23:20:36.590Z,21.60
2022-07-29T23:23:03.775Z,21.50
2022-07-29T23:25:30.759Z,21.40
2022-07-29T23:27:57.909Z,21.40
2022-07-29T23:30:25.273Z,21.30
2022-07-29T23:32:52.454Z,21.20
2022-07-29T23:35:19.529Z,21.10
2022-07-29T23:37:46.568Z,21.10
2022-07-29T23:40:14.943Z,21.00
2022-07-29T23:42:43.026Z,20.90
2022-07-29T23:45:11.288Z,20.90
2022-07-29T23:47:38.543Z,20.80
2022-07-29T23:50:08.130Z,20.80
2022-07-29T23:52:35.557Z,20.70
2022-07-29T23:55:36.766Z,20.70
2022-07-29T23:57:50.140Z,20.70
